Time;durP1;ratioP1;P1;durP2;ratioP2;P2;SDS_P1;SDS_P2;PMS_P1;PMS_P2;Temp;Humidity;BMP_temperature;BMP_pressure;BME280_temperature;BME280_humidity;BME280_pressure;Samples;Min_cycle;Max_cycle;Signal;HPM_P1;HPM_P2
2021/06/11 00:00:12;;;;;;;4.70;4.03;;;;;;;11.45;79.01;95663.03;1795118;80;21130;-61
2021/06/11 00:02:43;;;;;;;4.73;4.27;;;;;;;11.45;79.98;95661.72;1795083;80;21029;-61
2021/06/11 00:05:11;;;;;;;4.90;4.10;;;;;;;11.34;80.27;95662.41;1795355;80;21058;-61
2021/06/11 00:07:38;;;;;;;5.53;4.07;;;;;;;11.26;80.57;95665.20;1795402;80;20971;-61
2021/06/11 00:10:08;;;;;;;6.33;4.70;;;;;;;11.24;80.19;95660.39;1795766;80;21460;-61
2021/06/11 00:12:35;;;;;;;5.67;4.87;;;;;;;11.26;79.91;95658.59;1795368;80;21026;-61
2021/06/11 00:15:04;;;;;;;6.20;4.50;;;;;;;11.35;79.84;95662.81;1795518;80;21014;-61
2021/06/11 00:17:32;;;;;;;7.73;5.10;;;;;;;11.40;79.39;95655.66;1795544;80;21575;-61
2021/06/11 00:19:58;;;;;;;5.47;4.00;;;;;;;11.38;79.79;95651.31;1795306;80;20959;-61
2021/06/11 00:22:25;;;;;;;5.10;4.47;;;;;;;11.34;80.01;95645.66;1794872;80;21588;-61
2021/06/11 00:24:51;;;;;;;5.07;4.40;;;;;;;11.22;80.84;95654.27;1795069;80;21007;-61
2021/06/11 00:27:18;;;;;;;4.30;3.90;;;;;;;11.18;80.14;95653.03;1795505;80;21003;-61
2021/06/11 00:29:44;;;;;;;5.43;4.83;;;;;;;11.14;80.39;95649.59;1795140;80;21046;-61
2021/06/11 00:32:11;;;;;;;5.33;4.60;;;;;;;11.11;79.89;95652.73;1795036;80;21018;-61
2021/06/11 00:34:37;;;;;;;5.33;4.57;;;;;;;11.12;79.76;95655.35;1795492;80;21452;-61
2021/06/11 00:37:05;;;;;;;8.27;4.80;;;;;;;11.19;79.51;95653.02;1795245;80;21058;-61
2021/06/11 00:39:31;;;;;;;4.97;4.47;;;;;;;11.27;79.53;95646.25;1795582;80;20990;-61
2021/06/11 00:42:01;;;;;;;4.97;4.43;;;;;;;11.24;79.27;95644.55;1795336;80;21053;-61
2021/06/11 00:44:28;;;;;;;4.00;3.60;;;;;;;11.29;79.09;95652.38;1795394;80;20983;-61
2021/06/11 00:46:55;;;;;;;4.87;3.90;;;;;;;11.25;78.74;95645.41;1795610;80;21026;-61
2021/06/11 00:49:22;;;;;;;6.17;4.70;;;;;;;11.12;78.96;95645.25;1795474;80;21014;-61
2021/06/11 00:51:50;;;;;;;5.57;3.77;;;;;;;11.02;79.07;95650.70;1795393;80;21014;-61
2021/06/11 00:54:17;;;;;;;4.70;4.27;;;;;;;10.98;79.32;95650.78;1795601;80;21025;-61
2021/06/11 00:56:44;;;;;;;8.37;4.50;;;;;;;10.92;79.33;95642.53;1795331;80;21524;-61
2021/06/11 00:59:12;;;;;;;5.73;4.37;;;;;;;10.94;79.47;95647.34;1795514;80;20994;-61
2021/06/11 01:01:41;;;;;;;8.40;5.03;;;;;;;10.94;80.74;95644.70;1777550;80;21453;-61
2021/06/11 01:04:08;;;;;;;4.63;4.20;;;;;;;11.00;80.66;95641.93;1795530;80;21393;-61
2021/06/11 01:06:39;;;;;;;6.70;4.30;;;;;;;11.01;80.63;95645.43;1795547;80;20998;-61
2021/06/11 01:09:08;;;;;;;5.67;4.70;;;;;;;11.06;80.13;95644.89;1795603;80;21066;-61
2021/06/11 01:11:37;;;;;;;4.93;3.93;;;;;;;11.03;80.62;95639.68;1795575;80;20982;-61
2021/06/11 01:14:06;;;;;;;6.90;4.40;;;;;;;11.03;80.24;95640.55;1795546;80;21033;-61
2021/06/11 01:16:33;;;;;;;6.57;4.30;;;;;;;11.05;79.64;95636.56;1795237;80;21018;-61
2021/06/11 01:19:00;;;;;;;5.00;4.30;;;;;;;10.97;79.26;95634.53;1795486;80;21002;-61
2021/06/11 01:21:31;;;;;;;4.93;4.43;;;;;;;10.88;79.27;95629.42;1795358;80;21085;-61
2021/06/11 01:24:14;;;;;;;4.80;3.90;;;;;;;10.87;79.49;95630.33;1795382;80;21043;-61
2021/06/11 01:26:53;;;;;;;5.70;5.08;;;;;;;10.76;79.26;95626.13;1794301;80;21011;-61
2021/06/11 01:29:27;;;;;;;5.03;4.27;;;;;;;10.68;79.96;95625.37;1795514;80;21010;-61
2021/06/11 01:32:01;;;;;;;6.30;4.60;;;;;;;10.70;79.21;95628.00;1795429;80;21079;-62
2021/06/11 01:34:35;;;;;;;5.67;4.33;;;;;;;10.69;79.19;95628.45;1795219;80;20998;-61
2021/06/11 01:37:21;;;;;;;5.83;4.47;;;;;;;10.73;79.20;95627.48;1795504;80;21578;-61
2021/06/11 01:39:55;;;;;;;4.80;4.17;;;;;;;10.78;79.71;95625.63;1795483;80;21027;-61
2021/06/11 01:42:22;;;;;;;3.97;3.57;;;;;;;10.74;79.03;95620.46;1795204;80;21022;-61
2021/06/11 01:44:51;;;;;;;5.37;4.77;;;;;;;10.65;79.19;95622.80;1795577;80;20975;-61
2021/06/11 01:47:19;;;;;;;6.20;4.10;;;;;;;10.50;80.55;95614.71;1795556;80;20995;-61
2021/06/11 01:49:48;;;;;;;6.23;4.40;;;;;;;10.47;80.70;95619.19;1795425;80;21564;-61
2021/06/11 01:52:16;;;;;;;7.87;4.40;;;;;;;10.36;80.77;95619.38;1764477;80;21107;-61
2021/06/11 01:54:45;;;;;;;6.13;3.93;;;;;;;10.36;81.38;95621.56;1764567;80;20958;-61
2021/06/11 01:57:14;;;;;;;5.77;4.20;;;;;;;10.31;81.23;95620.78;1789913;80;21062;-61
2021/06/11 01:59:42;;;;;;;5.70;5.10;;;;;;;10.28;81.68;95622.58;1787259;80;20983;-61
2021/06/11 02:02:09;;;;;;;4.47;4.07;;;;;;;10.27;81.70;95624.77;1787088;80;21066;-61
2021/06/11 02:04:37;;;;;;;5.13;4.03;;;;;;;10.27;82.12;95625.64;1787090;80;20971;-61
2021/06/11 02:07:08;;;;;;;5.07;4.23;;;;;;;10.23;81.85;95623.97;1786956;80;21532;-60
2021/06/11 02:09:35;;;;;;;5.03;4.13;;;;;;;10.21;81.65;95632.80;1787349;80;21044;-61
2021/06/11 02:12:02;;;;;;;5.93;4.43;;;;;;;10.23;81.69;95630.56;1787153;80;20983;-61
2021/06/11 02:14:29;;;;;;;5.00;3.70;;;;;;;10.15;81.12;95637.28;1787116;80;20970;-61
2021/06/11 02:16:58;;;;;;;6.63;4.10;;;;;;;10.11;80.92;95643.94;1787194;80;21504;-61
2021/06/11 02:19:26;;;;;;;6.93;3.70;;;;;;;10.12;81.11;95639.08;1754602;80;21002;-61
2021/06/11 02:21:55;;;;;;;3.73;3.20;;;;;;;10.11;80.76;95636.89;1786941;80;21093;-61
2021/06/11 02:24:22;;;;;;;5.77;4.23;;;;;;;10.11;80.67;95640.84;1786844;80;21011;-61
2021/06/11 02:26:49;;;;;;;5.67;4.00;;;;;;;10.08;81.24;95637.37;1786966;80;21031;-61
2021/06/11 02:29:17;;;;;;;8.60;4.00;;;;;;;10.06;81.82;95640.05;1787181;80;21529;-61
2021/06/11 02:31:45;;;;;;;6.87;4.50;;;;;;;10.14;81.37;95645.20;1786789;80;21019;-61
2021/06/11 02:34:13;;;;;;;5.77;4.30;;;;;;;10.10;80.83;95640.86;1787134;80;21094;-61
2021/06/11 02:36:40;;;;;;;6.43;4.20;;;;;;;10.12;80.88;95637.75;1787062;80;21042;-61
2021/06/11 02:39:06;;;;;;;5.77;3.50;;;;;;;10.17;81.56;95643.38;1787242;80;21437;-61
2021/06/11 02:41:47;;;;;;;3.57;3.27;;;;;;;10.17;80.90;95639.87;1786793;80;21018;-61
2021/06/11 02:44:14;;;;;;;4.00;3.57;;;;;;;10.15;80.60;95641.23;1787230;80;21480;-61
2021/06/11 02:46:58;;;;;;;4.90;4.37;;;;;;;10.07;80.43;95639.59;1786862;80;21035;-61
2021/06/11 02:49:38;;;;;;;4.60;4.10;;;;;;;10.10;80.82;95638.22;1787154;80;21067;-61
2021/06/11 02:52:07;;;;;;;5.47;4.30;;;;;;;10.13;80.87;95633.79;1779716;80;21486;-61
2021/06/11 02:54:39;;;;;;;5.37;3.60;;;;;;;10.18;80.27;95632.41;1787095;80;20990;-61
2021/06/11 02:57:20;;;;;;;4.43;4.03;;;;;;;10.19;80.21;95628.86;1787084;80;21549;-61
2021/06/11 02:59:50;;;;;;;6.63;4.50;;;;;;;10.13;80.80;95636.42;1787052;80;21007;-61
2021/06/11 03:02:31;;;;;;;5.70;4.03;;;;;;;10.14;80.61;95626.29;1787103;80;20971;-61
2021/06/11 03:04:59;;;;;;;5.77;4.73;;;;;;;10.13;80.71;95631.16;1787209;80;21030;-61
2021/06/11 03:07:29;;;;;;;6.70;4.70;;;;;;;10.13;80.54;95631.58;1786903;80;20998;-61
2021/06/11 03:10:01;;;;;;;6.87;4.43;;;;;;;10.09;80.52;95621.54;1787096;80;20995;-60
2021/06/11 03:12:32;;;;;;;6.43;5.07;;;;;;;10.05;80.83;95626.88;1787093;80;21083;-61
2021/06/11 03:14:59;;;;;;;5.70;4.20;;;;;;;10.08;81.05;95623.77;1787288;80;21043;-61
2021/06/11 03:17:36;;;;;;;6.13;3.70;;;;;;;10.09;81.64;95628.59;1786842;80;21106;-61
2021/06/11 03:20:07;;;;;;;4.00;3.60;;;;;;;10.08;82.32;95629.46;1785993;80;21039;-61
2021/06/11 03:22:37;;;;;;;5.60;3.50;;;;;;;10.10;82.02;95626.36;1787160;80;21006;-61
2021/06/11 03:25:40;;;;;;;6.57;4.33;;;;;;;10.08;82.88;95632.09;1786871;80;21011;-61
2021/06/11 03:28:39;;;;;;;4.70;4.20;;;;;;;10.12;82.00;95625.89;1786761;80;21010;-61
2021/06/11 03:31:10;;;;;;;5.37;4.20;;;;;;;10.11;81.91;95622.84;1786954;80;21082;-61
2021/06/11 03:33:39;;;;;;;5.97;4.40;;;;;;;10.08;82.07;95621.13;1787084;80;21016;-61
2021/06/11 03:36:20;;;;;;;5.73;4.30;;;;;;;10.18;81.70;95624.49;1787025;80;20960;-61
2021/06/11 03:38:54;;;;;;;3.90;3.50;;;;;;;10.26;81.79;95629.64;1787018;80;21082;-61
2021/06/11 03:41:21;;;;;;;5.80;4.03;;;;;;;10.36;81.48;95628.62;1787159;80;21014;-61
2021/06/11 03:43:50;;;;;;;5.63;4.10;;;;;;;10.49;82.55;95627.95;1786896;80;21039;-61
2021/06/11 03:46:19;;;;;;;4.90;3.83;;;;;;;10.60;82.60;95629.48;1786940;80;20964;-61
2021/06/11 03:48:50;;;;;;;5.70;4.30;;;;;;;10.71;81.81;95627.09;1787344;80;21489;-61
2021/06/11 03:51:20;;;;;;;4.30;3.80;;;;;;;10.76;81.46;95626.13;1787232;80;21054;-61
2021/06/11 03:53:48;;;;;;;6.70;4.50;;;;;;;10.84;81.73;95623.34;1786797;80;21003;-61
2021/06/11 03:56:17;;;;;;;5.97;4.60;;;;;;;11.03;81.51;95639.22;1787041;80;21038;-62
2021/06/11 03:58:46;;;;;;;4.97;4.20;;;;;;;11.14;81.43;95635.53;1786775;80;21046;-61
2021/06/11 04:01:26;;;;;;;4.90;3.50;;;;;;;11.23;81.32;95632.22;1786801;80;21034;-61
2021/06/11 04:03:56;;;;;;;5.50;4.37;;;;;;;11.35;81.08;95639.03;1787256;80;21489;-61
2021/06/11 04:06:32;;;;;;;5.57;5.03;;;;;;;11.46;81.26;95641.02;1786705;80;21055;-61
2021/06/11 04:09:06;;;;;;;8.00;7.20;;;;;;;11.68;80.61;95640.53;1763902;80;21058;-62
2021/06/11 04:11:51;;;;;;;10.27;7.03;;;;;;;11.80;80.04;95640.27;1787274;80;21011;-62
2021/06/11 04:14:27;;;;;;;8.37;7.07;;;;;;;11.93;79.33;95644.84;1786809;80;20983;-62
2021/06/11 04:17:00;;;;;;;12.77;7.77;;;;;;;12.02;79.05;95639.36;1787156;80;21035;-65
2021/06/11 04:19:34;;;;;;;8.88;6.95;;;;;;;12.12;79.11;95636.91;1787261;80;21008;-65
2021/06/11 04:22:04;;;;;;;10.77;6.63;;;;;;;12.17;79.58;95639.45;1786899;80;21017;-65
2021/06/11 04:24:34;;;;;;;7.30;6.50;;;;;;;12.25;79.93;95642.77;1787372;80;21523;-65
2021/06/11 04:27:02;;;;;;;10.90;6.57;;;;;;;12.27;80.50;95636.99;1787217;80;21011;-65
2021/06/11 04:29:31;;;;;;;11.63;7.03;;;;;;;12.34;80.39;95645.62;1787167;80;21759;-65
2021/06/11 04:31:59;;;;;;;10.00;6.87;;;;;;;12.40;80.08;95647.25;1787370;80;20991;-65
2021/06/11 04:34:26;;;;;;;8.77;6.67;;;;;;;12.45;80.37;95646.25;1786850;80;21042;-65
2021/06/11 04:36:55;;;;;;;10.13;7.17;;;;;;;12.50;79.93;95647.47;1787173;80;21449;-65
2021/06/11 04:39:22;;;;;;;9.30;7.70;;;;;;;12.53;79.59;95646.05;1787217;80;20976;-65
2021/06/11 04:41:48;;;;;;;12.57;7.50;;;;;;;12.55;79.67;95645.57;1787298;80;21482;-65
2021/06/11 04:44:15;;;;;;;8.57;7.10;;;;;;;12.54;79.92;95648.64;1787359;80;20995;-65
2021/06/11 04:46:42;;;;;;;7.57;6.20;;;;;;;12.53;80.17;95640.77;1787382;80;21496;-65
2021/06/11 04:49:09;;;;;;;6.90;5.43;;;;;;;12.70;80.00;95645.59;1787098;80;20991;-65
2021/06/11 04:51:37;;;;;;;8.30;6.47;;;;;;;12.91;79.57;95638.89;1787200;80;21022;-65
2021/06/11 04:54:05;;;;;;;6.67;5.97;;;;;;;13.11;79.84;95639.20;1787068;80;21496;-65
2021/06/11 04:56:31;;;;;;;8.83;5.80;;;;;;;13.27;79.47;95635.70;1787054;80;21063;-66
2021/06/11 04:58:59;;;;;;;7.50;5.93;;;;;;;13.45;78.93;95644.89;1787325;80;21039;-64
2021/06/11 05:01:29;;;;;;;6.63;5.27;;;;;;;13.60;77.87;95642.25;1787233;80;20991;-65
2021/06/11 05:03:56;;;;;;;10.03;5.23;;;;;;;13.75;77.72;95643.58;1787187;80;20995;-66
2021/06/11 05:06:25;;;;;;;10.77;5.17;;;;;;;13.96;77.95;95644.27;1754975;80;20987;-61
2021/06/11 05:08:52;;;;;;;7.87;5.37;;;;;;;14.16;77.17;95645.41;1787022;80;20967;-66
2021/06/11 05:11:18;;;;;;;5.30;4.80;;;;;;;14.34;76.74;95647.48;1786856;80;21063;-63
2021/06/11 05:13:45;;;;;;;6.83;4.53;;;;;;;14.49;75.71;95646.98;1787240;80;21054;-63
2021/06/11 05:16:12;;;;;;;10.40;5.03;;;;;;;14.74;75.33;95642.66;1787358;80;21039;-63
2021/06/11 05:18:38;;;;;;;4.73;4.10;;;;;;;14.95;73.60;95651.23;1786756;80;21019;-65
2021/06/11 05:21:05;;;;;;;6.90;4.35;;;;;;;15.13;73.16;95645.25;1787273;80;21067;-61
2021/06/11 05:23:32;;;;;;;4.83;4.33;;;;;;;15.36;73.75;95639.10;1787132;80;20995;-61
2021/06/11 05:25:59;;;;;;;5.25;4.58;;;;;;;15.59;72.99;95641.37;1787409;80;21413;-61
2021/06/11 05:28:26;;;;;;;8.98;4.20;;;;;;;15.87;73.15;95647.01;1787442;80;21509;-64
2021/06/11 05:30:55;;;;;;;6.03;4.15;;;;;;;16.12;72.87;95637.13;1787249;80;21512;-63
2021/06/11 05:33:23;;;;;;;5.75;3.92;;;;;;;16.35;71.16;95640.67;1787163;80;21031;-63
2021/06/11 05:35:51;;;;;;;7.28;3.92;;;;;;;16.50;68.77;95640.05;1787131;80;21101;-64
2021/06/11 05:38:19;;;;;;;9.88;4.87;;;;;;;16.64;69.36;95636.36;1786949;80;20999;-62
2021/06/11 05:40:46;;;;;;;7.53;5.05;;;;;;;16.84;70.14;95642.69;1787243;80;20971;-65
2021/06/11 05:43:13;;;;;;;8.10;4.78;;;;;;;17.07;70.21;95640.36;1786834;80;21006;-64
2021/06/11 05:45:40;;;;;;;5.20;4.50;;;;;;;17.18;69.40;95643.41;1786769;80;21038;-65
2021/06/11 05:48:08;;;;;;;7.05;4.70;;;;;;;17.38;69.40;95645.20;1787268;80;21011;-63
2021/06/11 05:50:35;;;;;;;7.72;4.67;;;;;;;17.62;68.74;95641.91;1787106;80;21449;-64
2021/06/11 05:53:02;;;;;;;9.15;4.33;;;;;;;17.77;68.65;95643.02;1786906;80;21094;-68
2021/06/11 05:55:29;;;;;;;7.17;4.30;;;;;;;17.77;67.25;95634.16;1787054;80;21022;-66
2021/06/11 05:57:55;;;;;;;4.40;3.75;;;;;;;17.75;67.31;95638.22;1791354;80;21011;-65
2021/06/11 06:00:23;;;;;;;4.67;3.92;;;;;;;17.71;66.82;95636.17;1795346;80;21047;-66
2021/06/11 06:02:49;;;;;;;4.42;3.87;;;;;;;17.82;66.27;95635.70;1795509;80;21469;-66
2021/06/11 06:05:16;;;;;;;4.67;4.10;;;;;;;18.04;66.77;95633.34;1795423;80;20999;-66
2021/06/11 06:07:42;;;;;;;6.40;4.10;;;;;;;18.11;64.46;95637.45;1795465;80;21320;-66
2021/06/11 06:10:11;;;;;;;6.03;3.98;;;;;;;18.20;64.49;95634.83;1795293;80;21045;-66
2021/06/11 06:12:38;;;;;;;5.65;4.28;;;;;;;18.31;64.21;95635.17;1795451;80;21563;-66
2021/06/11 06:15:07;;;;;;;5.22;3.98;;;;;;;18.43;63.53;95633.72;1795452;80;21006;-65
2021/06/11 06:17:36;;;;;;;4.42;3.58;;;;;;;18.60;64.57;95629.75;1795654;80;21448;-65
2021/06/11 06:20:07;;;;;;;4.55;4.15;;;;;;;18.74;64.85;95629.91;1795433;80;21035;-63
2021/06/11 06:22:33;;;;;;;5.58;4.50;;;;;;;18.92;64.50;95637.49;1795442;80;21018;-64
2021/06/11 06:25:00;;;;;;;5.87;4.35;;;;;;;18.95;61.37;95639.14;1795516;80;21082;-61
2021/06/11 06:27:27;;;;;;;5.15;4.12;;;;;;;19.06;62.19;95638.63;1795750;80;21429;-61
2021/06/11 06:29:53;;;;;;;5.05;3.60;;;;;;;19.08;61.15;95637.59;1795582;80;21063;-64
2021/06/11 06:32:20;;;;;;;9.00;4.22;;;;;;;19.15;61.76;95637.68;1795426;80;21038;-66
2021/06/11 06:34:47;;;;;;;9.78;4.12;;;;;;;19.27;62.00;95637.49;1795185;80;21057;-63
2021/06/11 06:37:14;;;;;;;10.43;3.70;;;;;;;19.41;61.82;95639.47;1795365;80;20998;-63
2021/06/11 06:39:43;;;;;;;10.35;3.10;;;;;;;19.58;61.31;95635.87;1795117;80;20983;-62
2021/06/11 06:42:09;;;;;;;3.70;2.90;;;;;;;19.79;60.66;95640.59;1795374;80;21007;-61
2021/06/11 06:44:37;;;;;;;7.62;3.20;;;;;;;19.85;56.51;95633.55;1795222;80;20983;-60
2021/06/11 06:47:04;;;;;;;3.50;3.20;;;;;;;19.79;56.93;95636.58;1795815;80;21472;-62
2021/06/11 06:49:33;;;;;;;5.12;3.10;;;;;;;19.77;58.44;95639.33;1795168;80;21097;-64
2021/06/11 06:52:00;;;;;;;7.40;3.45;;;;;;;19.74;57.01;95638.16;1795562;80;20990;-62
2021/06/11 06:54:27;;;;;;;4.20;3.22;;;;;;;19.73;57.74;95643.14;1795373;80;21086;-65
2021/06/11 06:56:54;;;;;;;10.48;3.37;;;;;;;19.81;57.98;95644.06;1795668;80;20974;-64
2021/06/11 06:59:21;;;;;;;8.40;3.70;;;;;;;20.03;58.26;95630.34;1795369;80;20983;-63
2021/06/11 07:01:49;;;;;;;4.62;3.25;;;;;;;20.16;57.85;95635.88;1795482;80;20983;-64
2021/06/11 07:04:18;;;;;;;3.70;2.77;;;;;;;20.26;57.57;95628.60;1795351;80;20995;-64
2021/06/11 07:06:49;;;;;;;3.40;3.00;;;;;;;20.36;53.39;95626.72;1795594;80;21003;-64
2021/06/11 07:09:13;;;;;;;3.62;2.70;;;;;;;20.49;54.92;95627.78;1794413;80;21010;-64
2021/06/11 07:11:39;;;;;;;3.10;2.80;;;;;;;20.70;53.89;95625.70;1795737;80;21439;-64
2021/06/11 07:14:06;;;;;;;2.87;2.67;;;;;;;20.73;51.22;95625.03;1795515;80;21087;-64
2021/06/11 07:16:33;;;;;;;3.80;2.90;;;;;;;20.63;49.89;95624.31;1795446;80;20954;-64
2021/06/11 07:18:59;;;;;;;4.37;2.95;;;;;;;20.45;50.79;95625.73;1795512;80;21473;-64
2021/06/11 07:21:26;;;;;;;6.92;3.00;;;;;;;20.45;52.76;95627.06;1795525;80;20943;-63
2021/06/11 07:23:52;;;;;;;5.20;3.20;;;;;;;20.40;50.74;95622.45;1795287;80;21054;-65
2021/06/11 07:26:19;;;;;;;3.20;2.90;;;;;;;20.41;53.23;95624.64;1795426;80;21002;-62
2021/06/11 07:28:46;;;;;;;7.53;3.22;;;;;;;20.39;53.62;95631.94;1795442;80;21055;-63
2021/06/11 07:31:12;;;;;;;3.40;3.10;;;;;;;20.42;55.49;95634.44;1795362;80;21440;-61
2021/06/11 07:33:39;;;;;;;4.87;3.27;;;;;;;20.47;55.42;95636.38;1795191;80;21022;-62
2021/06/11 07:36:07;;;;;;;3.77;3.10;;;;;;;20.60;54.80;95637.91;1795628;80;21457;-61
2021/06/11 07:38:33;;;;;;;5.12;3.50;;;;;;;20.64;53.32;95630.09;1794826;80;21054;-64
2021/06/11 07:41:00;;;;;;;3.85;3.27;;;;;;;20.79;54.36;95632.33;1795610;80;21006;-62
2021/06/11 07:43:27;;;;;;;4.55;3.20;;;;;;;20.89;51.24;95630.83;1795384;80;21062;-63
2021/06/11 07:45:55;;;;;;;3.85;3.20;;;;;;;20.96;52.47;95633.09;1795423;80;21002;-68
2021/06/11 07:48:22;;;;;;;4.75;3.30;;;;;;;20.93;51.17;95635.94;1795328;80;20982;-64
2021/06/11 07:50:50;;;;;;;4.17;3.20;;;;;;;20.95;51.36;95635.38;1795104;80;21015;-65
2021/06/11 07:53:16;;;;;;;4.70;3.10;;;;;;;21.01;53.41;95636.82;1795313;80;20983;-67
2021/06/11 07:55:43;;;;;;;6.95;3.12;;;;;;;21.03;52.91;95628.70;1795356;80;21055;-65
2021/06/11 07:58:10;;;;;;;3.40;3.10;;;;;;;20.99;51.64;95630.70;1794981;80;21065;-65
2021/06/11 08:00:36;;;;;;;3.10;2.87;;;;;;;21.00;52.86;95640.47;1795359;80;21536;-65
2021/06/11 08:03:03;;;;;;;4.25;2.72;;;;;;;20.95;51.28;95637.20;1795344;80;20963;-66
2021/06/11 08:05:30;;;;;;;3.45;3.15;;;;;;;20.94;51.44;95637.68;1795165;80;20983;-65
2021/06/11 08:07:56;;;;;;;3.52;3.10;;;;;;;21.03;52.06;95639.42;1795506;80;21452;-64
2021/06/11 08:10:24;;;;;;;2.85;2.65;;;;;;;21.33;52.83;95632.70;1794958;80;21054;-64
2021/06/11 08:12:51;;;;;;;4.50;2.85;;;;;;;21.54;52.48;95636.78;1795179;80;21002;-64
2021/06/11 08:15:17;;;;;;;3.25;2.95;;;;;;;21.63;50.72;95637.20;1795382;80;21057;-65
2021/06/11 08:17:44;;;;;;;5.70;3.20;;;;;;;21.51;50.05;95638.80;1795489;80;20944;-65
2021/06/11 08:20:11;;;;;;;3.42;3.12;;;;;;;21.46;51.33;95638.22;1795291;80;21136;-65
2021/06/11 08:22:38;;;;;;;3.02;2.83;;;;;;;21.54;49.46;95634.58;1795431;80;21033;-65
2021/06/11 08:25:09;;;;;;;3.83;2.90;;;;;;;21.50;51.36;95633.92;1795546;80;21533;-65
2021/06/11 08:27:37;;;;;;;6.83;3.22;;;;;;;21.73;50.90;95632.50;1795464;80;21046;-64
2021/06/11 08:30:08;;;;;;;3.60;3.27;;;;;;;21.79;50.44;95630.76;1795481;80;21002;-64
2021/06/11 08:32:37;;;;;;;3.98;3.40;;;;;;;21.63;48.55;95632.69;1795413;80;20974;-65
2021/06/11 08:35:06;;;;;;;5.00;3.50;;;;;;;21.53;48.85;95629.70;1795256;80;21059;-64
2021/06/11 08:37:34;;;;;;;3.95;3.50;;;;;;;21.43;48.31;95627.67;1795510;80;20970;-63
2021/06/11 08:40:02;;;;;;;5.10;3.25;;;;;;;21.22;49.56;95628.44;1794908;80;21046;-65
2021/06/11 08:42:31;;;;;;;3.58;3.25;;;;;;;21.30;49.74;95625.70;1795402;80;21022;-65
2021/06/11 08:45:08;;;;;;;3.67;3.12;;;;;;;20.98;49.27;95631.64;1795378;80;20990;-65
2021/06/11 08:47:35;;;;;;;3.00;2.80;;;;;;;21.04;49.33;95628.62;1795535;80;21019;-68
2021/06/11 08:50:03;;;;;;;3.02;2.83;;;;;;;21.20;48.40;95621.84;1767319;80;21072;-69
2021/06/11 08:52:30;;;;;;;3.30;2.98;;;;;;;21.34;48.63;95623.23;1780873;80;21068;-69
2021/06/11 08:54:57;;;;;;;3.35;2.85;;;;;;;21.45;47.86;95624.42;1743032;82;21083;-68
2021/06/11 08:57:25;;;;;;;3.37;2.70;;;;;;;21.48;47.61;95626.92;1743383;82;21047;-69
2021/06/11 08:59:53;;;;;;;3.35;3.05;;;;;;;21.25;46.62;95625.12;1778333;80;21111;-67
2021/06/11 09:02:23;;;;;;;4.80;2.70;;;;;;;21.06;48.10;95619.97;1793013;79;20985;-68
2021/06/11 09:04:55;;;;;;;3.60;2.80;;;;;;;20.94;47.84;95627.41;1793876;80;21558;-65
2021/06/11 09:07:32;;;;;;;4.10;2.52;;;;;;;20.79;47.32;95625.17;1793985;80;21501;-65
2021/06/11 09:10:07;;;;;;;4.10;3.70;;;;;;;21.08;47.56;95622.58;1793778;80;21000;-64
2021/06/11 09:12:42;;;;;;;6.55;3.37;;;;;;;21.48;47.84;95618.86;1793834;80;21089;-66
2021/06/11 09:15:13;;;;;;;3.58;3.17;;;;;;;21.79;46.40;95617.81;1793756;80;21068;-66
2021/06/11 09:17:49;;;;;;;3.35;3.05;;;;;;;21.88;47.76;95613.70;1794137;80;21074;-64
2021/06/11 09:20:22;;;;;;;3.92;3.15;;;;;;;22.04;45.17;95611.27;1793338;80;21066;-64
2021/06/11 09:22:59;;;;;;;3.55;3.17;;;;;;;22.03;44.36;95610.05;1793758;80;21039;-64
2021/06/11 09:25:43;;;;;;;3.22;2.92;;;;;;;22.31;44.98;95612.34;1793718;80;21011;-64
2021/06/11 09:28:17;;;;;;;4.83;3.50;;;;;;;22.41;44.59;95616.16;1793785;80;21059;-64
2021/06/11 09:30:54;;;;;;;5.42;3.55;;;;;;;22.32;43.06;95610.02;1792732;80;21021;-64
2021/06/11 09:33:24;;;;;;;4.45;3.22;;;;;;;21.95;43.92;95613.70;1793183;80;21521;-64
2021/06/11 09:35:54;;;;;;;3.77;3.47;;;;;;;21.56;44.38;95615.22;1793834;80;21018;-64
2021/06/11 09:38:31;;;;;;;3.70;3.22;;;;;;;21.28;45.57;95610.65;1794025;80;21494;-64
2021/06/11 09:41:04;;;;;;;5.00;3.30;;;;;;;21.12;46.01;95620.11;1793378;80;21513;-64
2021/06/11 09:43:32;;;;;;;3.85;3.15;;;;;;;20.93;46.46;95618.98;1793821;80;21633;-64
2021/06/11 09:46:12;;;;;;;3.33;3.02;;;;;;;20.81;46.79;95611.17;1793891;80;21072;-64
2021/06/11 09:48:46;;;;;;;4.55;3.15;;;;;;;20.70;47.43;95610.47;1793911;80;21487;-64
2021/06/11 09:51:24;;;;;;;3.47;2.98;;;;;;;20.59;47.78;95609.35;1793818;80;21012;-64
2021/06/11 09:53:52;;;;;;;3.72;3.35;;;;;;;20.58;47.50;95605.81;1793731;80;21532;-65
2021/06/11 09:56:27;;;;;;;3.55;3.25;;;;;;;20.73;47.86;95608.94;1793874;80;21480;-64
2021/06/11 09:58:58;;;;;;;4.70;4.05;;;;;;;21.01;47.54;95602.44;1790991;80;21015;-64
2021/06/11 10:01:27;;;;;;;3.90;3.50;;;;;;;21.04;47.10;95603.58;1790999;80;21455;-64
2021/06/11 10:03:56;;;;;;;3.90;3.47;;;;;;;21.07;48.42;95592.69;1790442;80;21016;-64
2021/06/11 10:06:23;;;;;;;3.87;3.50;;;;;;;21.21;47.86;95594.53;1790718;80;21547;-64
2021/06/11 10:08:51;;;;;;;4.08;3.30;;;;;;;21.13;47.40;95595.00;1790722;80;20993;-64
2021/06/11 10:11:25;;;;;;;3.47;3.15;;;;;;;21.08;48.50;95597.09;1790432;80;21064;-64
2021/06/11 10:13:53;;;;;;;3.92;3.22;;;;;;;21.09;48.27;95592.98;1790917;80;21047;-64
2021/06/11 10:16:21;;;;;;;3.92;3.37;;;;;;;21.19;46.27;95597.30;1790478;80;21004;-64
2021/06/11 10:18:49;;;;;;;3.87;3.47;;;;;;;21.28;45.14;95590.03;1790929;80;21031;-64
2021/06/11 10:21:16;;;;;;;4.60;3.35;;;;;;;21.67;44.17;95584.56;1790446;80;21506;-64
2021/06/11 10:23:43;;;;;;;4.80;3.70;;;;;;;21.73;44.95;95585.50;1790789;80;21012;-64
2021/06/11 10:26:12;;;;;;;4.42;3.65;;;;;;;21.94;46.18;95584.61;1790625;80;21061;-64
2021/06/11 10:28:44;;;;;;;4.17;3.77;;;;;;;22.55;46.35;95585.17;1790737;80;21474;-64
2021/06/11 10:31:14;;;;;;;5.67;3.83;;;;;;;22.76;44.15;95586.08;1790549;80;21529;-64
2021/06/11 10:33:49;;;;;;;3.60;3.30;;;;;;;23.11;44.91;95583.23;1790663;80;21068;-64
2021/06/11 10:36:33;;;;;;;8.90;3.58;;;;;;;23.52;44.76;95584.88;1790714;80;20965;-64
2021/06/11 10:39:18;;;;;;;5.15;3.87;;;;;;;24.00;44.18;95575.30;1762365;80;20984;-64
2021/06/11 10:42:09;;;;;;;6.40;4.03;;;;;;;23.93;42.35;95579.76;1790794;80;21131;-64
2021/06/11 10:44:54;;;;;;;3.92;3.58;;;;;;;23.42;43.05;95581.11;1790847;80;21016;-64
2021/06/11 10:47:23;;;;;;;4.40;4.00;;;;;;;22.92;42.38;95581.37;1790828;80;20988;-64
2021/06/11 10:50:01;;;;;;;4.65;4.00;;;;;;;22.56;44.15;95578.84;1790696;80;21087;-64
2021/06/11 10:52:42;;;;;;;4.42;4.03;;;;;;;22.35;43.84;95576.21;1790651;80;21135;-64
2021/06/11 10:55:21;;;;;;;8.20;4.22;;;;;;;22.05;44.97;95574.55;1790873;80;20980;-64
2021/06/11 10:58:00;;;;;;;6.10;4.22;;;;;;;21.90;45.69;95571.02;1790798;80;21092;-64
2021/06/11 11:00:38;;;;;;;5.53;4.00;;;;;;;21.79;45.60;95570.33;1793654;80;21485;-64
2021/06/11 11:03:07;;;;;;;4.20;3.87;;;;;;;21.71;45.77;95567.76;1793729;80;21486;-64
2021/06/11 11:05:39;;;;;;;5.60;4.20;;;;;;;21.77;46.28;95572.27;1793895;80;20968;-64
2021/06/11 11:08:09;;;;;;;8.03;4.10;;;;;;;22.01;46.31;95563.11;1793970;80;21071;-64
2021/06/11 11:10:43;;;;;;;4.83;4.35;;;;;;;22.15;46.32;95571.64;1793503;80;21019;-64
2021/06/11 11:13:20;;;;;;;7.87;4.17;;;;;;;22.18;47.14;95564.72;1793889;80;21501;-64
2021/06/11 11:15:50;;;;;;;6.28;3.70;;;;;;;22.17;46.29;95562.12;1789507;80;21084;-64
2021/06/11 11:18:22;;;;;;;8.88;3.92;;;;;;;22.10;46.48;95567.05;1793733;80;21474;-64
2021/06/11 11:20:48;;;;;;;6.90;3.90;;;;;;;22.02;46.70;95562.17;1793499;80;21072;-64
2021/06/11 11:23:18;;;;;;;6.47;4.30;;;;;;;21.95;46.49;95568.89;1793742;80;20973;-65
2021/06/11 11:25:47;;;;;;;7.17;4.03;;;;;;;21.85;46.59;95571.78;1793805;80;21502;-65
2021/06/11 11:28:15;;;;;;;5.35;3.90;;;;;;;22.00;47.19;95572.15;1793759;80;20985;-64
2021/06/11 11:30:45;;;;;;;5.78;3.40;;;;;;;22.77;48.80;95572.51;1794010;80;21042;-64
2021/06/11 11:33:13;;;;;;;4.08;3.40;;;;;;;23.51;46.65;95567.47;1793748;80;21095;-64
2021/06/11 11:35:46;;;;;;;6.83;3.42;;;;;;;24.12;42.74;95553.70;1793765;80;21078;-65
2021/06/11 11:38:13;;;;;;;7.08;3.80;;;;;;;24.27;41.36;95553.56;1793996;80;20992;-65
2021/06/11 11:40:44;;;;;;;4.15;3.42;;;;;;;24.74;42.82;95554.56;1793769;80;21533;-65
2021/06/11 11:43:11;;;;;;;4.12;3.40;;;;;;;24.91;41.36;95548.75;1793666;80;20968;-65
2021/06/11 11:45:39;;;;;;;4.25;3.50;;;;;;;25.26;38.07;95549.26;1793908;80;21497;-64